createdAt,value
2023-12-11T00:00:15.732Z,98892.03
2023-12-11T00:02:47.140Z,98890.41
2023-12-11T00:05:16.485Z,98881.16
2023-12-11T00:07:45.450Z,98884.47
2023-12-11T00:10:13.588Z,98888.22
2023-12-11T00:12:43.693Z,98876.28
2023-12-11T00:15:12.398Z,98870.84
2023-12-11T00:17:41.981Z,98860.94
2023-12-11T00:20:11.695Z,98865.06
2023-12-11T00:22:40.722Z,98877.31
2023-12-11T00:25:11.873Z,98877.19
2023-12-11T00:27:41.038Z,98876.97
2023-12-11T00:30:11.192Z,98883.81
2023-12-11T00:32:40.094Z,98875.09
2023-12-11T00:35:09.549Z,98876.00
2023-12-11T00:37:43.918Z,98867.91
2023-12-11T00:40:13.021Z,98860.94
2023-12-11T00:42:41.416Z,98860.69
2023-12-11T00:45:14.157Z,98862.19
2023-12-11T00:47:42.518Z,98858.41
2023-12-11T00:50:10.902Z,98848.59
2023-12-11T00:52:38.933Z,98839.59
2023-12-11T00:55:08.525Z,98841.28
2023-12-11T00:57:36.720Z,98846.22
2023-12-11T01:00:08.127Z,98842.91
2023-12-11T01:02:43.724Z,98845.69
2023-12-11T01:05:13.669Z,98840.78
2023-12-11T01:07:44.275Z,98840.56
2023-12-11T01:10:16.178Z,98838.12
2023-12-11T01:12:46.840Z,98832.06
2023-12-11T01:15:19.242Z,98832.56
2023-12-11T01:17:52.150Z,98829.81
2023-12-11T01:20:22.275Z,98842.59
2023-12-11T01:22:53.067Z,98835.00
2023-12-11T01:25:21.124Z,98835.97
2023-12-11T01:27:51.995Z,98840.69
2023-12-11T01:30:20.651Z,98840.66
2023-12-11T01:32:52.192Z,98849.50
2023-12-11T01:35:20.553Z,98838.44
2023-12-11T01:37:48.376Z,98840.69
2023-12-11T01:40:16.372Z,98844.19
2023-12-11T01:42:47.446Z,98851.13
2023-12-11T01:45:15.605Z,98838.44
2023-12-11T01:47:49.848Z,98842.19
2023-12-11T01:50:19.652Z,98852.41
2023-12-11T01:52:51.841Z,98858.22
2023-12-11T01:55:19.987Z,98861.91
2023-12-11T01:57:48.528Z,98860.22
2023-12-11T02:00:17.004Z,98868.44
2023-12-11T02:02:45.655Z,98857.69
2023-12-11T02:05:13.945Z,98868.28
2023-12-11T02:07:43.362Z,98870.12
2023-12-11T02:10:11.861Z,98859.16
2023-12-11T02:12:40.891Z,98859.44
2023-12-11T02:15:09.567Z,98865.34
2023-12-11T02:17:37.440Z,98867.50
2023-12-11T02:20:07.208Z,98873.22
2023-12-11T02:22:35.180Z,98876.12
2023-12-11T02:25:06.713Z,98881.75
2023-12-11T02:27:36.349Z,98876.50
2023-12-11T02:30:04.422Z,98866.66
2023-12-11T02:32:32.305Z,98871.13
2023-12-11T02:35:00.352Z,98860.41
2023-12-11T02:37:28.461Z,98870.00
2023-12-11T02:39:56.554Z,98868.00
2023-12-11T02:42:24.602Z,98865.06
2023-12-11T02:44:54.034Z,98861.81
2023-12-11T02:47:21.891Z,98855.78
2023-12-11T02:49:49.955Z,98859.91
2023-12-11T02:52:18.084Z,98868.06
2023-12-11T02:54:45.984Z,98858.94
2023-12-11T02:57:14.122Z,98865.53
2023-12-11T02:59:42.017Z,98864.34
2023-12-11T03:02:11.178Z,98861.72
2023-12-11T03:04:40.363Z,98859.91
2023-12-11T03:07:08.364Z,98853.72
2023-12-11T03:09:36.434Z,98860.03
2023-12-11T03:12:04.912Z,98864.94
2023-12-11T03:14:32.758Z,98862.88
2023-12-11T03:17:00.617Z,98860.88
2023-12-11T03:19:30.130Z,98867.00
2023-12-11T03:21:58.135Z,98862.84
2023-12-11T03:24:26.003Z,98869.50
2023-12-11T03:26:54.073Z,98875.50
2023-12-11T03:29:21.989Z,98875.72
2023-12-11T03:31:49.849Z,98870.56
2023-12-11T03:34:18.003Z,98877.47
2023-12-11T03:36:48.300Z,98878.06
2023-12-11T03:39:16.577Z,98876.84
2023-12-11T03:41:45.308Z,98875.72
2023-12-11T03:44:13.227Z,98871.19
2023-12-11T03:46:41.512Z,98873.72
2023-12-11T03:49:09.912Z,98876.41
2023-12-11T03:51:37.872Z,98881.00
2023-12-11T03:54:06.979Z,98879.87
2023-12-11T03:56:35.063Z,98879.06
2023-12-11T03:59:02.970Z,98882.94
2023-12-11T04:01:30.886Z,98882.94
2023-12-11T04:03:59.111Z,98893.63
2023-12-11T04:06:27.086Z,98886.78
2023-12-11T04:08:55.163Z,98891.78
2023-12-11T04:11:24.609Z,98887.72
2023-12-11T04:13:52.457Z,98884.78
2023-12-11T04:16:20.268Z,98885.31
2023-12-11T04:18:50.724Z,98892.28
2023-12-11T04:21:18.648Z,98893.66
2023-12-11T04:23:46.563Z,98888.37
2023-12-11T04:26:15.370Z,98894.22
2023-12-11T04:28:44.560Z,98883.06
2023-12-11T04:31:12.962Z,98885.06
2023-12-11T04:33:41.298Z,98880.00
2023-12-11T04:36:10.352Z,98882.97
2023-12-11T04:38:38.597Z,98886.78
2023-12-11T04:41:06.947Z,98886.19
2023-12-11T04:43:35.297Z,98881.88
2023-12-11T04:46:05.046Z,98893.78
2023-12-11T04:48:33.973Z,98893.72
2023-12-11T04:51:02.138Z,98895.13
2023-12-11T04:53:33.503Z,98899.78
2023-12-11T04:56:07.420Z,98905.66
2023-12-11T04:58:35.761Z,98914.34
2023-12-11T05:01:05.954Z,98914.16
2023-12-11T05:03:33.926Z,98921.13
2023-12-11T05:06:02.246Z,98927.00
2023-12-11T05:08:30.793Z,98928.56
2023-12-11T05:10:58.835Z,98928.38
2023-12-11T05:13:26.709Z,98925.72
2023-12-11T05:15:54.852Z,98927.22
2023-12-11T05:18:24.814Z,98934.75
2023-12-11T05:20:52.755Z,98930.19
2023-12-11T05:23:20.869Z,98931.59
2023-12-11T05:25:48.660Z,98927.66
2023-12-11T05:28:16.531Z,98922.25
2023-12-11T05:30:44.928Z,98925.41
2023-12-11T05:33:12.990Z,98929.34
2023-12-11T05:35:42.279Z,98936.47
2023-12-11T05:38:10.387Z,98922.53
2023-12-11T05:40:38.346Z,98925.50
2023-12-11T05:43:06.264Z,98921.75
2023-12-11T05:45:34.396Z,98920.25
2023-12-11T05:48:02.288Z,98927.94
2023-12-11T05:50:32.187Z,98922.91
2023-12-11T05:53:03.191Z,98919.41
2023-12-11T05:55:31.099Z,98928.88
2023-12-11T05:57:58.970Z,98931.25
2023-12-11T06:00:27.269Z,98918.41
2023-12-11T06:02:55.789Z,98922.03
2023-12-11T06:05:23.868Z,98929.28
2023-12-11T06:07:51.666Z,98933.13
2023-12-11T06:10:21.204Z,98930.06
2023-12-11T06:12:49.217Z,98932.38
2023-12-11T06:15:17.331Z,98931.81
2023-12-11T06:17:45.500Z,98934.13
2023-12-11T06:20:13.656Z,98926.87
2023-12-11T06:22:41.738Z,98930.50
2023-12-11T06:25:09.065Z,98921.72
2023-12-11T06:27:38.317Z,98922.19
2023-12-11T06:30:08.632Z,98925.06
2023-12-11T06:32:36.820Z,98923.03
2023-12-11T06:35:05.562Z,98921.22
2023-12-11T06:37:33.541Z,98908.66
2023-12-11T06:40:01.673Z,98903.69
2023-12-11T06:42:33.700Z,98902.00
2023-12-11T06:45:03.230Z,98896.00
2023-12-11T06:47:31.307Z,98903.09
2023-12-11T06:49:59.370Z,98894.50
2023-12-11T06:52:28.494Z,98904.28
2023-12-11T06:54:56.435Z,98908.03
2023-12-11T06:57:24.349Z,98898.63
2023-12-11T06:59:52.520Z,98902.00
2023-12-11T07:02:21.960Z,98901.28
2023-12-11T07:04:49.962Z,98903.34
2023-12-11T07:07:18.146Z,98904.28
2023-12-11T07:09:47.528Z,98904.63
2023-12-11T07:12:15.810Z,98902.06
2023-12-11T07:14:45.427Z,98903.16
2023-12-11T07:17:13.349Z,98903.87
2023-12-11T07:19:43.109Z,98908.09
2023-12-11T07:22:11.373Z,98897.34
2023-12-11T07:24:39.324Z,98902.31
2023-12-11T07:27:07.187Z,98901.72
2023-12-11T07:29:35.245Z,98903.69
2023-12-11T07:32:03.121Z,98899.91
2023-12-11T07:34:31.261Z,98905.22
2023-12-11T07:37:00.790Z,98903.28
2023-12-11T07:39:28.649Z,98904.72
2023-12-11T07:41:56.804Z,98908.31
2023-12-11T07:44:24.875Z,98899.97
2023-12-11T07:46:52.721Z,98894.09
2023-12-11T07:49:20.759Z,98902.22
2023-12-11T07:51:48.951Z,98895.53
2023-12-11T07:54:19.113Z,98890.94
2023-12-11T07:56:48.395Z,98886.09
2023-12-11T07:59:17.956Z,98889.31
2023-12-11T08:01:46.498Z,98882.88
2023-12-11T08:04:15.010Z,98879.16
2023-12-11T08:06:43.313Z,98869.66
2023-12-11T08:09:12.304Z,98869.81
2023-12-11T08:11:41.757Z,98871.81
2023-12-11T08:14:09.606Z,98872.81
2023-12-11T08:16:37.466Z,98870.56
2023-12-11T08:19:05.620Z,98866.09
2023-12-11T08:21:34.029Z,98862.91
2023-12-11T08:24:01.903Z,98855.06
2023-12-11T08:26:30.074Z,98860.09
2023-12-11T08:29:00.552Z,98872.94
2023-12-11T08:31:29.057Z,98878.13
2023-12-11T08:33:57.140Z,98872.41
2023-12-11T08:36:25.039Z,98859.97
2023-12-11T08:38:53.370Z,98860.41
2023-12-11T08:41:21.302Z,98857.16
2023-12-11T08:43:49.639Z,98856.59
2023-12-11T08:46:19.166Z,98857.84
2023-12-11T08:48:47.504Z,98855.09
2023-12-11T08:51:18.445Z,98848.78
2023-12-11T08:53:46.785Z,98843.63
2023-12-11T08:56:16.393Z,98840.69
2023-12-11T08:58:44.771Z,98846.00
2023-12-11T09:01:12.994Z,98833.41
2023-12-11T09:03:43.878Z,98831.72
2023-12-11T09:06:12.129Z,98840.41
2023-12-11T09:08:40.294Z,98842.63
2023-12-11T09:11:08.196Z,98841.38
2023-12-11T09:13:37.150Z,98834.81
2023-12-11T09:16:05.702Z,98823.62
2023-12-11T09:18:33.693Z,98834.53
2023-12-11T09:21:03.172Z,98825.72
2023-12-11T09:23:31.240Z,98824.47
2023-12-11T09:25:59.054Z,98820.28
2023-12-11T09:28:31.821Z,98825.88
2023-12-11T09:31:05.985Z,98823.09
2023-12-11T09:33:34.488Z,98811.87
2023-12-11T09:36:05.020Z,98816.34
2023-12-11T09:38:32.944Z,98811.03
2023-12-11T09:41:01.603Z,98814.81
2023-12-11T09:43:29.572Z,98814.97
2023-12-11T09:45:57.702Z,98819.84
2023-12-11T09:48:26.056Z,98825.88
2023-12-11T09:50:54.595Z,98824.75
2023-12-11T09:53:23.987Z,98828.00
2023-12-11T09:55:52.500Z,98826.16
2023-12-11T09:58:23.216Z,98824.63
2023-12-11T10:00:51.426Z,98821.81
2023-12-11T10:03:19.669Z,98821.97
2023-12-11T10:05:48.392Z,98814.38
2023-12-11T10:08:18.993Z,98811.47
2023-12-11T10:10:48.454Z,98814.13
2023-12-11T10:13:25.370Z,98809.22
2023-12-11T10:15:53.965Z,98816.47
2023-12-11T10:18:22.400Z,98808.75
2023-12-11T10:20:55.241Z,98815.94
2023-12-11T10:23:24.019Z,98819.81
2023-12-11T10:25:55.217Z,98817.34
2023-12-11T10:28:25.651Z,98811.34
2023-12-11T10:30:55.800Z,98816.38
2023-12-11T10:33:26.088Z,98808.25
2023-12-11T10:35:55.140Z,98809.84
2023-12-11T10:38:24.070Z,98807.31
2023-12-11T10:40:54.430Z,98809.06
2023-12-11T10:43:22.438Z,98804.13
2023-12-11T10:45:52.060Z,98801.53
2023-12-11T10:48:22.454Z,98795.63
2023-12-11T10:50:51.560Z,98800.00
2023-12-11T10:53:20.326Z,98793.56
2023-12-11T10:55:51.543Z,98789.87
2023-12-11T10:58:22.090Z,98795.59
2023-12-11T11:00:50.715Z,98796.94
2023-12-11T11:03:22.297Z,98788.16
2023-12-11T11:05:53.641Z,98785.38
2023-12-11T11:08:28.799Z,98792.62
2023-12-11T11:11:03.616Z,98790.53
2023-12-11T11:13:39.990Z,98795.28
2023-12-11T11:16:08.311Z,98797.31
2023-12-11T11:19:05.206Z,98796.87
2023-12-11T11:21:33.565Z,98795.00
2023-12-11T11:24:01.630Z,98784.16
2023-12-11T11:26:34.885Z,98791.09
2023-12-11T11:29:04.972Z,98785.06
2023-12-11T11:31:52.997Z,98787.06
2023-12-11T11:34:47.230Z,98783.66
2023-12-11T11:37:18.681Z,98779.66
2023-12-11T11:40:01.253Z,98775.53
2023-12-11T11:42:32.298Z,98764.44
2023-12-11T11:45:03.229Z,98763.22
2023-12-11T11:47:33.654Z,98764.00
2023-12-11T11:50:06.673Z,98762.31
2023-12-11T11:52:37.217Z,98764.66
2023-12-11T11:55:12.307Z,98762.06
2023-12-11T11:57:41.117Z,98753.22
2023-12-11T12:00:11.982Z,98754.75
2023-12-11T12:02:40.143Z,98750.87
2023-12-11T12:05:11.265Z,98745.31
2023-12-11T12:07:41.261Z,98743.87
2023-12-11T12:10:10.053Z,98745.84
2023-12-11T12:12:38.024Z,98737.28
2023-12-11T12:15:08.838Z,98735.53
2023-12-11T12:17:40.257Z,98738.59
2023-12-11T12:20:12.617Z,98732.47
2023-12-11T12:22:41.748Z,98736.94
2023-12-11T12:25:17.683Z,98726.50
2023-12-11T12:27:46.973Z,98737.28
2023-12-11T12:30:16.063Z,98721.28
2023-12-11T12:32:45.688Z,98720.87
2023-12-11T12:35:13.924Z,98727.44
2023-12-11T12:37:42.389Z,98723.59
2023-12-11T12:40:12.974Z,98723.88
2023-12-11T12:42:41.236Z,98735.91
2023-12-11T12:45:12.867Z,98725.31
2023-12-11T12:47:48.104Z,98719.75
2023-12-11T12:50:24.206Z,98713.81
2023-12-11T12:52:52.300Z,98724.28
2023-12-11T12:55:30.089Z,98727.59
2023-12-11T12:57:58.825Z,98718.88
2023-12-11T13:00:27.080Z,98715.66
2023-12-11T13:02:56.749Z,98717.72
2023-12-11T13:05:41.721Z,98728.66
2023-12-11T13:08:10.405Z,98733.97
2023-12-11T13:10:38.738Z,98732.03
2023-12-11T13:13:12.758Z,98720.03
2023-12-11T13:15:42.014Z,98717.00
2023-12-11T13:18:15.316Z,98717.06
2023-12-11T13:20:44.028Z,98719.72
2023-12-11T13:23:12.170Z,98716.34
2023-12-11T13:25:40.055Z,98724.72
2023-12-11T13:28:08.342Z,98719.41
2023-12-11T13:30:36.491Z,98729.00
2023-12-11T13:33:04.932Z,98729.72
2023-12-11T13:35:35.026Z,98720.34
2023-12-11T13:38:02.965Z,98720.41
2023-12-11T13:40:31.003Z,98718.50
2023-12-11T13:42:59.398Z,98720.56
2023-12-11T13:45:28.895Z,98722.63
2023-12-11T13:47:56.908Z,98722.59
2023-12-11T13:50:25.106Z,98719.72
2023-12-11T13:52:54.477Z,98720.50
2023-12-11T13:55:22.350Z,98718.16
2023-12-11T13:57:50.549Z,98716.84
2023-12-11T14:00:18.665Z,98721.66
2023-12-11T14:03:00.904Z,98728.56
2023-12-11T14:05:32.224Z,98719.81
2023-12-11T14:08:01.987Z,98724.22
2023-12-11T14:10:31.660Z,98730.41
2023-12-11T14:12:59.817Z,98736.72
2023-12-11T14:15:29.753Z,98735.63
2023-12-11T14:17:57.943Z,98732.16
2023-12-11T14:20:25.870Z,98745.28
2023-12-11T14:22:54.167Z,98744.78
2023-12-11T14:25:23.510Z,98748.34
2023-12-11T14:27:51.439Z,98745.91
2023-12-11T14:30:19.905Z,98747.97
2023-12-11T14:32:48.000Z,98757.78
2023-12-11T14:35:16.019Z,98756.09
2023-12-11T14:37:44.165Z,98762.88
2023-12-11T14:40:12.661Z,98757.59
2023-12-11T14:42:41.977Z,98771.91
2023-12-11T14:45:11.585Z,98776.19
2023-12-11T14:47:39.558Z,98770.66
2023-12-11T14:50:08.907Z,98786.38
2023-12-11T14:52:39.206Z,98779.28
2023-12-11T14:55:08.552Z,98786.72
2023-12-11T14:57:37.457Z,98778.59
2023-12-11T15:00:12.018Z,98782.88
2023-12-11T15:02:39.981Z,98787.59
2023-12-11T15:05:09.044Z,98788.28
2023-12-11T15:07:37.799Z,98783.72
2023-12-11T15:10:06.833Z,98785.66
2023-12-11T15:12:36.773Z,98789.28
2023-12-11T15:15:07.962Z,98792.69
2023-12-11T15:17:36.365Z,98785.44
2023-12-11T15:20:10.602Z,98797.44
2023-12-11T15:22:38.939Z,98809.31
2023-12-11T15:25:10.357Z,98823.81
2023-12-11T15:27:38.675Z,98821.38
2023-12-11T15:30:10.035Z,98828.56
2023-12-11T15:32:38.831Z,98824.38
2023-12-11T15:35:07.662Z,98836.28
2023-12-11T15:37:36.109Z,98841.16
2023-12-11T15:40:08.254Z,98841.41
2023-12-11T15:42:39.093Z,98853.56
2023-12-11T15:45:09.600Z,98850.63
2023-12-11T15:47:59.977Z,98860.41
2023-12-11T15:50:26.268Z,98855.50
2023-12-11T15:52:54.695Z,98860.69
2023-12-11T15:55:23.144Z,98861.72
2023-12-11T15:57:52.737Z,98873.34
2023-12-11T16:00:22.647Z,98872.50
2023-12-11T16:02:50.783Z,98870.66
2023-12-11T16:05:19.125Z,98871.41
2023-12-11T16:07:47.360Z,98884.25
2023-12-11T16:10:15.836Z,98893.88
2023-12-11T16:12:44.005Z,98890.81
2023-12-11T16:15:12.939Z,98905.00
2023-12-11T16:17:42.524Z,98922.78
2023-12-11T16:20:11.081Z,98912.63
2023-12-11T16:22:39.006Z,98928.19
2023-12-11T16:25:11.418Z,98922.75
2023-12-11T16:27:39.768Z,98924.81
2023-12-11T16:30:10.809Z,98926.81
2023-12-11T16:32:38.746Z,98935.91
2023-12-11T16:35:08.968Z,98946.84
2023-12-11T16:37:37.243Z,98950.75
2023-12-11T16:40:07.425Z,98947.28
2023-12-11T16:42:36.298Z,98965.19
2023-12-11T16:45:05.112Z,98967.28
2023-12-11T16:47:33.713Z,98964.63
2023-12-11T16:50:06.958Z,98967.28
2023-12-11T16:52:38.099Z,98971.78
2023-12-11T16:55:07.631Z,98970.78
2023-12-11T16:57:35.562Z,98977.50
2023-12-11T17:00:04.156Z,98988.56
2023-12-11T17:02:32.610Z,98989.53
2023-12-11T17:05:00.714Z,98997.63
2023-12-11T17:07:28.978Z,99010.09
2023-12-11T17:09:59.900Z,99015.41
2023-12-11T17:12:28.569Z,99020.16
2023-12-11T17:14:57.761Z,99018.06
2023-12-11T17:17:27.035Z,99024.34
2023-12-11T17:19:56.253Z,99024.66
2023-12-11T17:22:24.216Z,99035.53
2023-12-11T17:24:52.135Z,99032.06
2023-12-11T17:27:21.636Z,99041.00
2023-12-11T17:29:49.705Z,99048.97
2023-12-11T17:32:17.903Z,99056.94
2023-12-11T17:34:46.447Z,99049.44
2023-12-11T17:37:14.479Z,99059.75
2023-12-11T17:39:42.433Z,99067.78
2023-12-11T17:42:10.540Z,99069.22
2023-12-11T17:44:39.672Z,99079.28
2023-12-11T17:47:07.529Z,99088.00
2023-12-11T17:49:35.734Z,99092.97
2023-12-11T17:52:03.778Z,99082.25
2023-12-11T17:54:31.830Z,99106.03
2023-12-11T17:57:00.052Z,99096.00
2023-12-11T17:59:27.939Z,99105.91
2023-12-11T18:01:57.341Z,99118.75
2023-12-11T18:04:25.752Z,99123.22
2023-12-11T18:06:54.924Z,99123.03
2023-12-11T18:09:22.942Z,99128.53
2023-12-11T18:11:51.002Z,99126.47
2023-12-11T18:14:18.882Z,99129.53
2023-12-11T18:16:46.776Z,99127.53
2023-12-11T18:19:16.305Z,99129.63
2023-12-11T18:21:44.217Z,99129.09
2023-12-11T18:24:12.205Z,99139.53
2023-12-11T18:26:40.626Z,99139.37
2023-12-11T18:29:08.428Z,99143.78
2023-12-11T18:31:36.287Z,99136.22
2023-12-11T18:34:05.514Z,99137.28
2023-12-11T18:36:39.830Z,99143.91
2023-12-11T18:39:09.949Z,99138.59
2023-12-11T18:41:37.840Z,99146.91
2023-12-11T18:44:06.038Z,99149.31
2023-12-11T18:46:34.244Z,99151.69
2023-12-11T18:49:02.468Z,99152.66
2023-12-11T18:51:31.786Z,99158.09
2023-12-11T18:54:01.359Z,99158.59
2023-12-11T18:56:29.466Z,99160.00
2023-12-11T18:58:57.353Z,99169.63
2023-12-11T19:01:25.905Z,99165.41
2023-12-11T19:03:54.302Z,99175.09
2023-12-11T19:06:22.510Z,99179.66
2023-12-11T19:08:50.588Z,99192.44
2023-12-11T19:11:19.912Z,99196.50
2023-12-11T19:13:47.760Z,99204.56
2023-12-11T19:16:16.012Z,99205.72
2023-12-11T19:18:44.016Z,99213.12
2023-12-11T19:21:14.569Z,99216.44
2023-12-11T19:23:42.678Z,99217.19
2023-12-11T19:26:12.814Z,99228.44
2023-12-11T19:28:42.073Z,99234.56
2023-12-11T19:31:10.234Z,99239.44
2023-12-11T19:33:39.140Z,99241.56
2023-12-11T19:36:07.965Z,99247.16
2023-12-11T19:38:38.872Z,99244.84
2023-12-11T19:41:08.343Z,99246.41
2023-12-11T19:43:36.613Z,99250.03
2023-12-11T19:46:08.450Z,99259.06
2023-12-11T19:48:37.506Z,99258.47
2023-12-11T19:51:12.279Z,99254.69
2023-12-11T19:53:40.556Z,99256.56
2023-12-11T19:56:09.343Z,99257.50
2023-12-11T19:58:37.652Z,99260.06
2023-12-11T20:01:07.580Z,99278.16
2023-12-11T20:03:35.731Z,99272.34
2023-12-11T20:06:04.723Z,99281.72
2023-12-11T20:08:33.260Z,99280.78
2023-12-11T20:11:01.397Z,99279.06
2023-12-11T20:13:29.675Z,99286.28
2023-12-11T20:15:58.014Z,99290.38
2023-12-11T20:18:27.758Z,99297.75
2023-12-11T20:20:55.748Z,99305.22
2023-12-11T20:23:23.752Z,99320.41
2023-12-11T20:25:52.254Z,99318.16
2023-12-11T20:28:20.260Z,99326.69
2023-12-11T20:30:48.486Z,99338.25
2023-12-11T20:33:16.825Z,99343.81
2023-12-11T20:35:47.330Z,99344.16
2023-12-11T20:38:15.218Z,99351.91
2023-12-11T20:40:43.368Z,99356.50
2023-12-11T20:43:11.854Z,99362.50
2023-12-11T20:45:40.118Z,99363.47
2023-12-11T20:48:08.327Z,99375.78
2023-12-11T20:50:36.430Z,99376.72
2023-12-11T20:53:05.666Z,99382.06
2023-12-11T20:55:33.839Z,99388.66
2023-12-11T20:58:01.933Z,99392.16
2023-12-11T21:00:29.826Z,99394.22
2023-12-11T21:02:59.887Z,99403.72
2023-12-11T21:05:28.561Z,99412.53
2023-12-11T21:07:56.815Z,99416.28
2023-12-11T21:10:26.362Z,99421.25
2023-12-11T21:12:54.341Z,99427.34
2023-12-11T21:15:24.950Z,99426.41
2023-12-11T21:17:56.312Z,99439.78
2023-12-11T21:20:24.221Z,99440.16
2023-12-11T21:22:52.115Z,99440.28
2023-12-11T21:25:21.028Z,99449.81
2023-12-11T21:27:50.389Z,99451.59
2023-12-11T21:30:20.721Z,99461.50
2023-12-11T21:32:48.972Z,99457.88
2023-12-11T21:35:17.119Z,99467.53
2023-12-11T21:37:45.038Z,99464.75
2023-12-11T21:40:14.436Z,99479.62
2023-12-11T21:42:43.292Z,99464.75
2023-12-11T21:45:12.533Z,99477.53
2023-12-11T21:47:40.940Z,99474.41
2023-12-11T21:50:11.087Z,99478.59
2023-12-11T21:52:39.233Z,99479.94
2023-12-11T21:55:08.353Z,99479.44
2023-12-11T21:57:36.467Z,99478.38
2023-12-11T22:00:05.054Z,99480.91
2023-12-11T22:02:41.151Z,99480.81
2023-12-11T22:05:10.162Z,99481.06
2023-12-11T22:07:38.148Z,99495.03
2023-12-11T22:10:07.840Z,99505.44
2023-12-11T22:12:36.124Z,99508.53
2023-12-11T22:15:04.383Z,99519.59
2023-12-11T22:17:32.541Z,99508.56
2023-12-11T22:20:02.274Z,99529.78
2023-12-11T22:22:30.334Z,99537.41
2023-12-11T22:24:58.305Z,99532.56
2023-12-11T22:27:26.544Z,99537.47
2023-12-11T22:29:54.438Z,99543.22
2023-12-11T22:32:22.319Z,99547.66
2023-12-11T22:34:50.642Z,99558.50
2023-12-11T22:37:19.979Z,99565.66
2023-12-11T22:39:47.929Z,99562.75
2023-12-11T22:42:16.256Z,99572.28
2023-12-11T22:44:44.144Z,99572.69
2023-12-11T22:47:12.223Z,99577.56
2023-12-11T22:49:40.414Z,99576.50
2023-12-11T22:52:08.276Z,99580.06
2023-12-11T22:54:37.724Z,99577.72
2023-12-11T22:57:06.308Z,99582.59
2023-12-11T22:59:34.191Z,99583.66
2023-12-11T23:02:04.467Z,99582.63
2023-12-11T23:04:33.528Z,99590.69
2023-12-11T23:07:01.582Z,99586.38
2023-12-11T23:09:29.462Z,99585.78
2023-12-11T23:11:58.970Z,99586.91
2023-12-11T23:14:26.975Z,99596.47
2023-12-11T23:16:54.986Z,99594.75
2023-12-11T23:19:23.290Z,99600.28
2023-12-11T23:21:51.638Z,99596.59
2023-12-11T23:24:20.003Z,99599.66
2023-12-11T23:26:48.172Z,99593.84
2023-12-11T23:29:17.387Z,99588.63
2023-12-11T23:31:45.249Z,99595.31
2023-12-11T23:34:13.464Z,99594.06
2023-12-11T23:36:41.313Z,99595.22
2023-12-11T23:39:09.433Z,99594.78
2023-12-11T23:41:37.585Z,99595.19
2023-12-11T23:44:05.870Z,99593.16
2023-12-11T23:46:35.208Z,99602.78
2023-12-11T23:49:03.725Z,99600.19
2023-12-11T23:51:32.181Z,99606.34
2023-12-11T23:54:00.088Z,99610.16
2023-12-11T23:56:28.244Z,99614.25
2023-12-11T23:58:56.067Z,99617.31
